createdAt,value
2022-09-15T00:00:54.722Z,5.65
2022-09-15T00:03:56.608Z,5.57
2022-09-15T00:06:58.216Z,4.85
2022-09-15T00:10:00.016Z,5.50
2022-09-15T00:13:01.765Z,5.25
2022-09-15T00:16:04.526Z,5.90
2022-09-15T00:19:06.750Z,5.25
2022-09-15T00:22:08.352Z,5.83
2022-09-15T00:25:10.160Z,5.15
2022-09-15T00:28:12.968Z,5.50
2022-09-15T00:31:17.259Z,5.40
2022-09-15T00:34:19.093Z,5.43
2022-09-15T00:37:20.730Z,5.60
2022-09-15T00:40:22.397Z,4.63
2022-09-15T00:44:02.573Z,5.22
2022-09-15T00:47:19.215Z,4.63
2022-09-15T00:50:21.886Z,4.00
2022-09-15T00:53:25.841Z,3.90
2022-09-15T00:56:28.864Z,3.80
2022-09-15T01:02:35.869Z,4.53
2022-09-15T01:05:45.951Z,7.30
2022-09-15T01:08:54.547Z,9.00
2022-09-15T01:11:56.622Z,9.05
2022-09-15T01:15:01.824Z,8.75
2022-09-15T01:18:14.814Z,10.07
2022-09-15T01:21:25.167Z,8.70
2022-09-15T01:25:06.347Z,7.43
2022-09-15T01:28:19.943Z,6.03
2022-09-15T01:31:24.845Z,6.72
2022-09-15T01:34:30.063Z,6.07
2022-09-15T01:37:37.671Z,6.50
2022-09-15T01:40:52.618Z,6.40
2022-09-15T01:44:05.244Z,6.28
2022-09-15T01:47:10.389Z,7.07
2022-09-15T01:50:17.577Z,6.93
2022-09-15T01:53:21.812Z,6.45
2022-09-15T01:56:23.497Z,6.18
2022-09-15T01:59:25.497Z,6.38
2022-09-15T02:02:31.984Z,6.97
2022-09-15T02:05:47.863Z,6.78
2022-09-15T02:09:00.511Z,4.63
2022-09-15T02:12:32.164Z,4.60
2022-09-15T02:15:43.609Z,5.00
2022-09-15T02:19:31.704Z,5.13
2022-09-15T02:22:37.840Z,5.20
2022-09-15T02:25:47.176Z,4.68
2022-09-15T02:28:50.630Z,5.00
2022-09-15T02:31:55.187Z,5.15
2022-09-15T02:34:59.119Z,3.28
2022-09-15T02:38:05.290Z,3.13
2022-09-15T02:41:06.938Z,2.58
2022-09-15T02:44:09.694Z,2.83
2022-09-15T02:47:12.184Z,2.67
2022-09-15T02:50:13.771Z,2.75
2022-09-15T02:53:15.414Z,3.03
2022-09-15T02:56:18.195Z,3.42
2022-09-15T02:59:19.729Z,3.30
2022-09-15T03:02:21.367Z,3.85
2022-09-15T03:05:28.093Z,4.10
2022-09-15T03:08:29.678Z,3.80
2022-09-15T03:11:31.647Z,4.13
2022-09-15T03:14:34.130Z,3.97
2022-09-15T03:17:36.643Z,4.20
2022-09-15T03:20:38.197Z,4.85
2022-09-15T03:23:40.814Z,5.28
2022-09-15T03:26:42.420Z,4.32
2022-09-15T03:29:44.094Z,4.65
2022-09-15T03:32:45.679Z,4.45
2022-09-15T03:35:49.351Z,4.57
2022-09-15T03:38:51.020Z,4.50
2022-09-15T03:41:52.677Z,5.00
2022-09-15T03:44:54.430Z,4.15
2022-09-15T03:47:56.023Z,4.68
2022-09-15T03:50:57.866Z,5.43
2022-09-15T03:54:03.296Z,4.90
2022-09-15T03:57:05.421Z,5.55
2022-09-15T04:00:08.539Z,4.50
2022-09-15T04:03:10.519Z,5.40
2022-09-15T04:06:12.267Z,5.18
2022-09-15T04:09:13.954Z,6.22
2022-09-15T04:12:15.559Z,5.85
2022-09-15T04:15:17.197Z,5.72
2022-09-15T04:18:18.785Z,6.25
2022-09-15T04:21:23.134Z,6.43
2022-09-15T04:24:24.935Z,6.38
2022-09-15T04:27:26.607Z,6.85
2022-09-15T04:30:28.220Z,7.20
2022-09-15T04:33:29.813Z,7.22
2022-09-15T04:36:31.711Z,7.40
2022-09-15T04:39:33.322Z,7.30
2022-09-15T04:42:34.962Z,7.95
2022-09-15T04:45:36.582Z,7.85
2022-09-15T04:48:38.352Z,9.35
2022-09-15T04:51:40.379Z,9.13
2022-09-15T04:54:42.315Z,7.68
2022-09-15T04:57:44.070Z,8.10
2022-09-15T05:00:45.927Z,8.27
2022-09-15T05:03:48.069Z,8.73
2022-09-15T05:06:49.695Z,9.02
2022-09-15T05:09:51.487Z,9.43
2022-09-15T05:13:04.010Z,9.75
2022-09-15T05:16:15.173Z,9.15
2022-09-15T05:19:16.955Z,9.43
2022-09-15T05:22:18.563Z,9.32
2022-09-15T05:25:20.393Z,10.50
2022-09-15T05:28:22.119Z,9.13
2022-09-15T05:31:36.214Z,10.02
2022-09-15T05:34:37.889Z,9.90
2022-09-15T05:37:39.587Z,10.48
2022-09-15T05:40:41.215Z,10.32
2022-09-15T05:43:43.486Z,10.10
2022-09-15T05:46:45.232Z,10.47
2022-09-15T05:49:46.966Z,8.32
2022-09-15T05:52:51.750Z,8.32
2022-09-15T05:55:57.869Z,9.10
2022-09-15T05:58:59.835Z,8.82
2022-09-15T06:02:02.087Z,9.63
2022-09-15T06:05:04.082Z,10.10
2022-09-15T06:08:05.710Z,10.10
2022-09-15T06:11:10.377Z,9.73
2022-09-15T06:14:13.577Z,10.20
2022-09-15T06:17:15.172Z,10.77
2022-09-15T06:20:18.525Z,9.98
2022-09-15T06:23:20.238Z,10.40
2022-09-15T06:26:21.971Z,9.85
2022-09-15T06:29:24.326Z,9.70
2022-09-15T06:32:26.310Z,10.10
2022-09-15T06:35:27.920Z,9.57
2022-09-15T06:38:30.051Z,9.68
2022-09-15T06:41:52.387Z,10.17
2022-09-15T06:44:53.874Z,9.32
2022-09-15T06:48:13.664Z,9.88
2022-09-15T06:51:18.941Z,10.20
2022-09-15T06:54:20.640Z,9.63
2022-09-15T06:57:22.362Z,9.70
2022-09-15T07:00:24.223Z,10.10
2022-09-15T07:03:25.976Z,8.43
2022-09-15T07:06:29.717Z,8.20
2022-09-15T07:09:31.670Z,7.97
2022-09-15T07:12:33.289Z,7.78
2022-09-15T07:15:35.349Z,7.45
2022-09-15T07:18:42.337Z,7.07
2022-09-15T07:21:44.761Z,5.97
2022-09-15T07:24:46.494Z,6.07
2022-09-15T07:27:48.247Z,5.93
2022-09-15T07:30:51.335Z,6.53
2022-09-15T07:36:55.232Z,5.90
2022-09-15T07:39:56.947Z,7.00
2022-09-15T07:42:58.791Z,7.55
2022-09-15T07:46:01.592Z,8.32
2022-09-15T07:49:04.608Z,8.15
2022-09-15T07:52:06.235Z,8.40
2022-09-15T07:55:09.555Z,8.65
2022-09-15T07:58:11.102Z,8.88
2022-09-15T08:01:14.707Z,8.73
2022-09-15T08:04:16.415Z,8.05
2022-09-15T08:07:18.079Z,10.00
2022-09-15T08:10:19.719Z,10.13
2022-09-15T08:13:22.245Z,9.55
2022-09-15T08:16:24.906Z,9.82
2022-09-15T08:19:27.866Z,9.05
2022-09-15T08:22:29.692Z,10.52
2022-09-15T08:25:31.419Z,10.52
2022-09-15T08:28:33.092Z,11.05
2022-09-15T08:31:34.736Z,10.70
2022-09-15T08:34:36.359Z,10.65
2022-09-15T08:37:37.998Z,10.82
2022-09-15T08:40:44.771Z,11.63
2022-09-15T08:43:54.825Z,10.15
2022-09-15T08:47:05.621Z,10.25
2022-09-15T08:50:44.847Z,10.35
2022-09-15T08:53:55.975Z,9.88
2022-09-15T08:56:58.593Z,9.95
2022-09-15T09:00:00.209Z,9.38
2022-09-15T09:03:32.752Z,9.93
2022-09-15T09:06:57.364Z,10.05
2022-09-15T09:10:17.126Z,9.93
2022-09-15T09:13:22.997Z,9.85
2022-09-15T09:16:41.433Z,9.88
2022-09-15T09:20:10.182Z,10.13
2022-09-15T09:23:17.828Z,10.02
2022-09-15T09:26:19.597Z,10.65
2022-09-15T09:29:32.328Z,9.30
2022-09-15T09:32:40.749Z,9.93
2022-09-15T09:35:45.533Z,9.85
2022-09-15T09:38:48.711Z,9.68
2022-09-15T09:41:51.284Z,9.25
2022-09-15T09:44:53.255Z,9.52
2022-09-15T09:48:01.776Z,9.75
2022-09-15T09:51:03.809Z,9.85
2022-09-15T09:54:06.227Z,9.90
2022-09-15T09:57:13.954Z,8.77
2022-09-15T10:00:34.936Z,8.70
2022-09-15T10:03:38.693Z,8.88
2022-09-15T10:06:42.670Z,8.07
2022-09-15T10:10:01.051Z,7.68
2022-09-15T10:13:05.735Z,7.88
2022-09-15T10:16:07.929Z,7.80
2022-09-15T10:19:14.206Z,7.07
2022-09-15T10:22:40.078Z,4.82
2022-09-15T10:25:59.130Z,4.40
2022-09-15T10:29:16.762Z,4.45
2022-09-15T10:32:29.066Z,4.53
2022-09-15T10:35:33.145Z,4.50
2022-09-15T10:38:49.945Z,4.32
2022-09-15T10:42:12.325Z,5.00
2022-09-15T10:45:39.143Z,4.68
2022-09-15T10:49:20.675Z,4.25
2022-09-15T10:52:37.261Z,4.80
2022-09-15T10:55:55.614Z,3.95
2022-09-15T10:59:16.326Z,4.07
2022-09-15T11:02:46.007Z,4.53
2022-09-15T11:06:06.552Z,4.30
2022-09-15T11:09:37.671Z,2.58
2022-09-15T11:13:00.470Z,6.35
2022-09-15T11:16:17.291Z,2.70
2022-09-15T11:19:42.383Z,6.25
2022-09-15T11:22:58.193Z,2.90
2022-09-15T11:26:48.177Z,2.40
2022-09-15T11:30:05.235Z,1.90
2022-09-15T11:33:42.600Z,2.00
2022-09-15T11:36:59.009Z,1.63
2022-09-15T11:40:14.859Z,1.65
2022-09-15T11:43:34.055Z,1.80
2022-09-15T11:46:48.654Z,1.80
2022-09-15T11:50:00.634Z,1.85
2022-09-15T11:53:28.050Z,2.00
2022-09-15T11:56:37.189Z,1.80
2022-09-15T11:59:46.600Z,2.10
2022-09-15T12:03:10.424Z,1.90
2022-09-15T12:06:45.717Z,2.90
2022-09-15T12:09:48.254Z,3.58
2022-09-15T12:12:52.542Z,3.70
2022-09-15T12:15:55.145Z,3.53
2022-09-15T12:19:26.080Z,3.33
2022-09-15T12:22:54.695Z,3.67
2022-09-15T12:26:14.368Z,3.42
2022-09-15T12:29:21.888Z,3.22
2022-09-15T12:32:33.248Z,3.38
2022-09-15T12:35:35.010Z,3.20
2022-09-15T12:38:36.809Z,3.35
2022-09-15T12:41:53.328Z,2.72
2022-09-15T12:45:19.232Z,2.92
2022-09-15T12:48:25.727Z,2.50
2022-09-15T12:51:29.288Z,2.92
2022-09-15T12:54:36.264Z,2.47
2022-09-15T12:57:38.031Z,2.08
2022-09-15T13:01:00.691Z,2.20
2022-09-15T13:04:03.788Z,2.47
2022-09-15T13:07:35.205Z,2.17
2022-09-15T13:10:41.205Z,2.17
2022-09-15T13:14:11.190Z,2.22
2022-09-15T13:17:20.116Z,2.60
2022-09-15T13:20:32.125Z,2.30
2022-09-15T13:23:38.325Z,2.50
2022-09-15T13:26:49.304Z,2.47
2022-09-15T13:30:14.961Z,2.97
2022-09-15T13:35:02.170Z,2.67
2022-09-15T13:41:07.393Z,2.47
2022-09-15T13:44:28.014Z,2.30
2022-09-15T13:47:51.256Z,2.15
2022-09-15T13:50:59.651Z,2.40
2022-09-15T13:54:07.957Z,2.25
2022-09-15T13:57:09.720Z,2.85
2022-09-15T14:00:23.011Z,2.50
2022-09-15T14:03:37.287Z,2.63
2022-09-15T14:06:41.828Z,2.53
2022-09-15T14:09:47.608Z,2.72
2022-09-15T14:12:51.188Z,2.85
2022-09-15T14:15:57.715Z,2.47
2022-09-15T14:19:00.235Z,2.75
2022-09-15T14:22:18.031Z,2.83
2022-09-15T14:25:20.679Z,2.95
2022-09-15T14:28:31.441Z,2.38
2022-09-15T14:31:39.038Z,2.80
2022-09-15T14:34:42.247Z,2.30
2022-09-15T14:37:49.391Z,2.47
2022-09-15T14:40:56.975Z,3.10
2022-09-15T14:43:58.732Z,3.33
2022-09-15T14:47:00.274Z,3.10
2022-09-15T14:50:18.013Z,3.15
2022-09-15T14:53:23.269Z,3.63
2022-09-15T14:56:30.383Z,3.80
2022-09-15T14:59:44.387Z,3.80
2022-09-15T15:03:24.615Z,3.58
2022-09-15T15:06:34.869Z,3.60
2022-09-15T15:09:47.808Z,3.70
2022-09-15T15:12:55.567Z,3.55
2022-09-15T15:15:57.567Z,3.50
2022-09-15T15:18:59.604Z,3.73
2022-09-15T15:22:13.849Z,3.08
2022-09-15T15:25:38.537Z,3.17
2022-09-15T15:28:43.189Z,3.38
2022-09-15T15:31:45.091Z,3.25
2022-09-15T15:34:53.217Z,3.13
2022-09-15T15:38:04.663Z,3.00
2022-09-15T15:41:09.047Z,3.40
2022-09-15T15:44:13.631Z,3.22
2022-09-15T15:47:18.219Z,3.15
2022-09-15T15:50:28.484Z,3.17
2022-09-15T15:53:33.056Z,3.67
2022-09-15T15:56:38.865Z,3.17
2022-09-15T15:59:40.706Z,2.97
2022-09-15T16:02:42.533Z,2.72
2022-09-15T16:05:46.797Z,3.60
2022-09-15T16:08:48.958Z,2.97
2022-09-15T16:11:51.248Z,3.00
2022-09-15T16:14:55.462Z,3.17
2022-09-15T16:17:57.072Z,2.88
2022-09-15T16:20:58.794Z,2.85
2022-09-15T16:24:00.722Z,2.95
2022-09-15T16:27:04.501Z,2.90
2022-09-15T16:30:08.363Z,2.80
2022-09-15T16:33:15.491Z,3.00
2022-09-15T16:36:18.220Z,2.80
2022-09-15T16:39:19.807Z,3.47
2022-09-15T16:42:21.370Z,2.83
2022-09-15T16:45:29.177Z,2.95
2022-09-15T16:48:34.343Z,2.78
2022-09-15T16:51:35.912Z,3.28
2022-09-15T16:54:37.953Z,2.72
2022-09-15T16:57:40.907Z,2.85
2022-09-15T17:00:44.465Z,3.47
2022-09-15T17:03:46.268Z,2.60
2022-09-15T17:06:47.906Z,2.47
2022-09-15T17:09:50.653Z,2.67
2022-09-15T17:12:52.425Z,2.33
2022-09-15T17:15:54.219Z,2.45
2022-09-15T17:18:55.893Z,2.15
2022-09-15T17:21:57.474Z,1.85
2022-09-15T17:24:59.064Z,1.70
2022-09-15T17:28:01.181Z,2.20
2022-09-15T17:31:15.199Z,1.20
2022-09-15T17:34:16.884Z,1.50
2022-09-15T17:37:18.438Z,1.42
2022-09-15T17:40:20.961Z,1.40
2022-09-15T17:43:30.701Z,1.33
2022-09-15T17:46:32.447Z,1.45
2022-09-15T17:49:34.243Z,1.00
2022-09-15T17:52:35.921Z,1.40
2022-09-15T17:55:38.000Z,1.10
2022-09-15T17:58:39.902Z,1.10
2022-09-15T18:01:41.610Z,1.20
2022-09-15T18:04:43.355Z,1.40
2022-09-15T18:07:45.018Z,1.30
2022-09-15T18:10:46.991Z,1.13
2022-09-15T18:13:57.684Z,1.20
2022-09-15T18:16:59.448Z,1.15
2022-09-15T18:20:01.442Z,1.20
2022-09-15T18:23:05.388Z,1.20
2022-09-15T18:26:09.595Z,1.10
2022-09-15T18:29:11.528Z,1.10
2022-09-15T18:32:13.365Z,0.95
2022-09-15T18:35:18.683Z,1.02
2022-09-15T18:38:21.781Z,1.50
2022-09-15T18:41:24.036Z,1.10
2022-09-15T18:44:27.643Z,1.53
2022-09-15T18:47:29.241Z,1.10
2022-09-15T18:50:30.916Z,1.08
2022-09-15T18:53:36.101Z,1.20
2022-09-15T18:56:37.935Z,1.13
2022-09-15T18:59:39.694Z,0.93
2022-09-15T19:02:41.921Z,1.33
2022-09-15T19:05:43.532Z,1.20
2022-09-15T19:08:45.097Z,1.20
2022-09-15T19:11:46.806Z,1.40
2022-09-15T19:14:48.519Z,0.95
2022-09-15T19:17:50.162Z,1.10
2022-09-15T19:20:51.798Z,1.10
2022-09-15T19:23:56.759Z,1.85
2022-09-15T19:26:58.350Z,1.90
2022-09-15T19:30:00.730Z,1.38
2022-09-15T19:33:03.163Z,1.40
2022-09-15T19:36:26.780Z,1.38
2022-09-15T19:39:29.025Z,1.10
2022-09-15T19:42:30.901Z,1.40
2022-09-15T19:46:27.963Z,1.40
2022-09-15T19:49:34.780Z,1.50
2022-09-15T19:52:36.820Z,1.70
2022-09-15T19:55:38.915Z,1.50
2022-09-15T19:58:42.100Z,1.40
2022-09-15T20:01:44.588Z,1.48
2022-09-15T20:04:47.049Z,1.45
2022-09-15T20:07:49.015Z,1.65
2022-09-15T20:10:51.280Z,1.60
2022-09-15T20:13:54.217Z,1.70
2022-09-15T20:16:58.750Z,1.58
2022-09-15T20:20:03.016Z,1.83
2022-09-15T20:23:04.719Z,1.60
2022-09-15T20:26:09.109Z,1.48
2022-09-15T20:29:11.065Z,1.77
2022-09-15T20:32:12.865Z,1.67
2022-09-15T20:35:15.015Z,1.88
2022-09-15T20:38:16.746Z,1.57
2022-09-15T20:41:20.619Z,1.50
2022-09-15T20:44:22.380Z,1.55
2022-09-15T20:47:24.105Z,1.85
2022-09-15T20:50:27.323Z,1.58
2022-09-15T20:56:35.525Z,1.63
2022-09-15T20:59:37.358Z,1.30
2022-09-15T21:02:39.283Z,1.60
2022-09-15T21:05:42.541Z,1.50
2022-09-15T21:11:49.085Z,1.80
2022-09-15T21:14:52.987Z,1.35
2022-09-15T21:17:54.642Z,1.80
2022-09-15T21:21:10.763Z,1.45
2022-09-15T21:24:12.389Z,1.90
2022-09-15T21:27:26.900Z,1.50
2022-09-15T21:30:28.474Z,1.92
2022-09-15T21:33:30.834Z,1.45
2022-09-15T21:36:32.638Z,1.63
2022-09-15T21:39:34.371Z,1.48
2022-09-15T21:42:35.997Z,1.20
2022-09-15T21:45:37.650Z,1.50
2022-09-15T21:48:40.107Z,1.23
2022-09-15T21:51:41.740Z,1.23
2022-09-15T21:54:43.435Z,1.30
2022-09-15T21:57:45.021Z,1.75
2022-09-15T22:00:47.774Z,1.20
2022-09-15T22:03:51.616Z,1.48
2022-09-15T22:06:53.298Z,1.40
2022-09-15T22:09:56.186Z,1.42
2022-09-15T22:12:57.871Z,1.63
2022-09-15T22:16:08.397Z,1.52
2022-09-15T22:19:11.693Z,1.38
2022-09-15T22:22:13.289Z,1.67
2022-09-15T22:25:19.806Z,1.50
2022-09-15T22:28:23.424Z,1.60
2022-09-15T22:31:26.443Z,2.00
2022-09-15T22:34:29.196Z,1.45
2022-09-15T22:37:33.012Z,1.40
2022-09-15T22:40:34.651Z,1.30
2022-09-15T22:43:36.881Z,2.38
2022-09-15T22:46:38.537Z,1.60
2022-09-15T22:49:40.174Z,1.40
2022-09-15T22:52:41.783Z,1.08
2022-09-15T22:55:43.431Z,1.20
2022-09-15T22:58:45.411Z,1.27
2022-09-15T23:01:47.154Z,1.15
2022-09-15T23:04:49.061Z,1.50
2022-09-15T23:07:50.653Z,1.23
2022-09-15T23:10:52.286Z,1.48
2022-09-15T23:13:54.652Z,1.50
2022-09-15T23:16:56.244Z,1.27
2022-09-15T23:19:58.174Z,1.70
2022-09-15T23:23:00.199Z,1.40
2022-09-15T23:26:02.794Z,1.45
2022-09-15T23:29:04.403Z,1.55
2022-09-15T23:32:06.091Z,1.60
2022-09-15T23:35:08.088Z,1.55
2022-09-15T23:38:09.779Z,1.27
2022-09-15T23:41:12.720Z,1.80
2022-09-15T23:44:14.343Z,1.85
2022-09-15T23:47:15.923Z,2.33
2022-09-15T23:50:17.508Z,1.90
2022-09-15T23:53:19.204Z,2.10
2022-09-15T23:56:20.907Z,2.30
2022-09-15T23:59:22.504Z,2.05
